sensor_id;sensor_type;location;lat;lon;timestamp;P1;durP1;ratioP1;P2;durP2;ratioP2
49223;SDS011;35050;51.316;5.994;2022-09-24T00:00:42;3.30;;;2.88;;
49223;SDS011;35050;51.316;5.994;2022-09-24T00:03:09;4.65;;;3.58;;
49223;SDS011;35050;51.316;5.994;2022-09-24T00:05:36;5.40;;;4.10;;
49223;SDS011;35050;51.316;5.994;2022-09-24T00:08:03;4.68;;;3.83;;
49223;SDS011;35050;51.316;5.994;2022-09-24T00:10:30;4.22;;;3.67;;
49223;SDS011;35050;51.316;5.994;2022-09-24T00:12:55;4.20;;;3.80;;
49223;SDS011;35050;51.316;5.994;2022-09-24T00:15:21;3.95;;;3.55;;
49223;SDS011;35050;51.316;5.994;2022-09-24T00:17:47;3.88;;;3.38;;
49223;SDS011;35050;51.316;5.994;2022-09-24T00:20:12;4.03;;;3.40;;
49223;SDS011;35050;51.316;5.994;2022-09-24T00:22:38;4.78;;;3.95;;
49223;SDS011;35050;51.316;5.994;2022-09-24T00:25:04;4.78;;;4.25;;
49223;SDS011;35050;51.316;5.994;2022-09-24T00:27:48;5.40;;;4.90;;
49223;SDS011;35050;51.316;5.994;2022-09-24T00:30:13;4.75;;;4.10;;
49223;SDS011;35050;51.316;5.994;2022-09-24T00:32:39;4.53;;;3.92;;
49223;SDS011;35050;51.316;5.994;2022-09-24T00:35:05;3.63;;;3.30;;
49223;SDS011;35050;51.316;5.994;2022-09-24T00:37:30;4.18;;;3.78;;
49223;SDS011;35050;51.316;5.994;2022-09-24T00:39:56;4.82;;;3.90;;
49223;SDS011;35050;51.316;5.994;2022-09-24T00:42:22;3.97;;;3.60;;
49223;SDS011;35050;51.316;5.994;2022-09-24T00:44:48;4.15;;;3.75;;
49223;SDS011;35050;51.316;5.994;2022-09-24T00:47:25;4.18;;;3.45;;
49223;SDS011;35050;51.316;5.994;2022-09-24T00:50:07;4.07;;;3.75;;
49223;SDS011;35050;51.316;5.994;2022-09-24T00:52:35;4.32;;;3.53;;
49223;SDS011;35050;51.316;5.994;2022-09-24T00:55:05;3.50;;;3.20;;
49223;SDS011;35050;51.316;5.994;2022-09-24T00:57:32;5.32;;;3.63;;
49223;SDS011;35050;51.316;5.994;2022-09-24T00:59:59;4.22;;;3.50;;
49223;SDS011;35050;51.316;5.994;2022-09-24T01:02:25;4.82;;;3.80;;
49223;SDS011;35050;51.316;5.994;2022-09-24T01:04:51;4.30;;;3.60;;
49223;SDS011;35050;51.316;5.994;2022-09-24T01:07:17;5.65;;;3.63;;
49223;SDS011;35050;51.316;5.994;2022-09-24T01:09:43;4.18;;;3.78;;
49223;SDS011;35050;51.316;5.994;2022-09-24T01:23:16;4.40;;;4.00;;
49223;SDS011;35050;51.316;5.994;2022-09-24T01:28:30;5.07;;;4.40;;
49223;SDS011;35050;51.316;5.994;2022-09-24T01:31:25;4.43;;;4.03;;
49223;SDS011;35050;51.316;5.994;2022-09-24T01:33:56;4.97;;;4.28;;
49223;SDS011;35050;51.316;5.994;2022-09-24T01:36:24;4.65;;;4.15;;
49223;SDS011;35050;51.316;5.994;2022-09-24T01:38:52;4.97;;;4.05;;
49223;SDS011;35050;51.316;5.994;2022-09-24T01:41:18;4.50;;;3.90;;
49223;SDS011;35050;51.316;5.994;2022-09-24T01:43:45;7.32;;;3.90;;
49223;SDS011;35050;51.316;5.994;2022-09-24T01:46:12;4.97;;;4.47;;
49223;SDS011;35050;51.316;5.994;2022-09-24T01:48:43;5.05;;;4.55;;
49223;SDS011;35050;51.316;5.994;2022-09-24T01:53:44;4.28;;;3.88;;
49223;SDS011;35050;51.316;5.994;2022-09-24T01:56:17;4.78;;;4.25;;
49223;SDS011;35050;51.316;5.994;2022-09-24T01:58:49;4.80;;;4.15;;
49223;SDS011;35050;51.316;5.994;2022-09-24T02:01:26;4.75;;;4.18;;
49223;SDS011;35050;51.316;5.994;2022-09-24T02:04:00;4.85;;;4.32;;
49223;SDS011;35050;51.316;5.994;2022-09-24T02:06:39;5.50;;;4.47;;
49223;SDS011;35050;51.316;5.994;2022-09-24T02:09:33;4.40;;;4.00;;
49223;SDS011;35050;51.316;5.994;2022-09-24T02:12:11;4.38;;;3.95;;
49223;SDS011;35050;51.316;5.994;2022-09-24T02:14:50;5.65;;;3.97;;
49223;SDS011;35050;51.316;5.994;2022-09-24T02:17:21;4.90;;;4.10;;
49223;SDS011;35050;51.316;5.994;2022-09-24T02:19:49;4.38;;;3.97;;
49223;SDS011;35050;51.316;5.994;2022-09-24T02:22:18;5.20;;;4.47;;
49223;SDS011;35050;51.316;5.994;2022-09-24T02:24:46;5.35;;;4.35;;
49223;SDS011;35050;51.316;5.994;2022-09-24T02:27:18;5.90;;;4.78;;
49223;SDS011;35050;51.316;5.994;2022-09-24T02:29:46;9.02;;;4.25;;
49223;SDS011;35050;51.316;5.994;2022-09-24T02:32:13;5.60;;;4.40;;
49223;SDS011;35050;51.316;5.994;2022-09-24T02:34:47;4.90;;;4.32;;
49223;SDS011;35050;51.316;5.994;2022-09-24T02:37:16;4.70;;;4.18;;
49223;SDS011;35050;51.316;5.994;2022-09-24T02:39:41;5.25;;;4.57;;
49223;SDS011;35050;51.316;5.994;2022-09-24T02:42:08;5.40;;;4.47;;
49223;SDS011;35050;51.316;5.994;2022-09-24T02:44:36;5.10;;;4.07;;
49223;SDS011;35050;51.316;5.994;2022-09-24T02:47:02;5.32;;;4.60;;
49223;SDS011;35050;51.316;5.994;2022-09-24T02:49:28;4.85;;;4.30;;
49223;SDS011;35050;51.316;5.994;2022-09-24T02:51:54;5.35;;;4.60;;
49223;SDS011;35050;51.316;5.994;2022-09-24T02:54:21;4.68;;;4.20;;
49223;SDS011;35050;51.316;5.994;2022-09-24T02:56:47;4.78;;;4.28;;
49223;SDS011;35050;51.316;5.994;2022-09-24T02:59:12;4.72;;;4.30;;
49223;SDS011;35050;51.316;5.994;2022-09-24T03:01:38;5.53;;;4.20;;
49223;SDS011;35050;51.316;5.994;2022-09-24T03:04:04;5.22;;;4.28;;
49223;SDS011;35050;51.316;5.994;2022-09-24T03:06:30;4.80;;;4.40;;
49223;SDS011;35050;51.316;5.994;2022-09-24T03:08:55;5.10;;;4.60;;
49223;SDS011;35050;51.316;5.994;2022-09-24T03:11:22;6.85;;;4.70;;
49223;SDS011;35050;51.316;5.994;2022-09-24T03:13:50;5.13;;;4.18;;
49223;SDS011;35050;51.316;5.994;2022-09-24T03:16:16;5.18;;;4.68;;
49223;SDS011;35050;51.316;5.994;2022-09-24T03:18:42;5.13;;;4.50;;
49223;SDS011;35050;51.316;5.994;2022-09-24T03:21:11;5.97;;;4.35;;
49223;SDS011;35050;51.316;5.994;2022-09-24T03:23:39;5.53;;;5.03;;
49223;SDS011;35050;51.316;5.994;2022-09-24T03:26:05;5.40;;;4.70;;
49223;SDS011;35050;51.316;5.994;2022-09-24T03:28:31;5.03;;;4.18;;
49223;SDS011;35050;51.316;5.994;2022-09-24T03:30:56;5.22;;;4.50;;
49223;SDS011;35050;51.316;5.994;2022-09-24T03:35:55;5.03;;;4.43;;
49223;SDS011;35050;51.316;5.994;2022-09-24T03:38:22;5.43;;;4.40;;
49223;SDS011;35050;51.316;5.994;2022-09-24T03:40:48;5.65;;;4.75;;
49223;SDS011;35050;51.316;5.994;2022-09-24T03:43:13;6.22;;;4.60;;
49223;SDS011;35050;51.316;5.994;2022-09-24T03:45:39;5.40;;;4.90;;
49223;SDS011;35050;51.316;5.994;2022-09-24T03:48:05;5.90;;;5.22;;
49223;SDS011;35050;51.316;5.994;2022-09-24T03:50:31;5.32;;;4.82;;
49223;SDS011;35050;51.316;5.994;2022-09-24T03:52:59;5.72;;;5.13;;
49223;SDS011;35050;51.316;5.994;2022-09-24T03:55:25;6.25;;;4.80;;
49223;SDS011;35050;51.316;5.994;2022-09-24T03:57:50;5.32;;;4.70;;
49223;SDS011;35050;51.316;5.994;2022-09-24T04:00:16;5.82;;;4.75;;
49223;SDS011;35050;51.316;5.994;2022-09-24T04:02:42;5.03;;;4.53;;
49223;SDS011;35050;51.316;5.994;2022-09-24T04:05:08;5.78;;;4.93;;
49223;SDS011;35050;51.316;5.994;2022-09-24T04:07:33;6.07;;;4.75;;
49223;SDS011;35050;51.316;5.994;2022-09-24T04:09:59;4.90;;;4.40;;
49223;SDS011;35050;51.316;5.994;2022-09-24T04:12:24;4.85;;;4.30;;
49223;SDS011;35050;51.316;5.994;2022-09-24T04:14:50;5.05;;;4.30;;
49223;SDS011;35050;51.316;5.994;2022-09-24T04:17:16;4.72;;;4.22;;
49223;SDS011;35050;51.316;5.994;2022-09-24T04:19:41;5.13;;;4.28;;
49223;SDS011;35050;51.316;5.994;2022-09-24T04:22:07;5.32;;;4.40;;
49223;SDS011;35050;51.316;5.994;2022-09-24T04:24:33;4.97;;;4.47;;
49223;SDS011;35050;51.316;5.994;2022-09-24T04:26:59;4.97;;;4.47;;
49223;SDS011;35050;51.316;5.994;2022-09-24T04:29:24;5.53;;;4.35;;
49223;SDS011;35050;51.316;5.994;2022-09-24T04:31:50;4.97;;;4.25;;
49223;SDS011;35050;51.316;5.994;2022-09-24T04:34:15;4.75;;;4.25;;
49223;SDS011;35050;51.316;5.994;2022-09-24T04:36:42;4.93;;;4.43;;
49223;SDS011;35050;51.316;5.994;2022-09-24T04:39:08;4.75;;;4.25;;
49223;SDS011;35050;51.316;5.994;2022-09-24T04:41:36;4.53;;;4.03;;
49223;SDS011;35050;51.316;5.994;2022-09-24T04:44:02;5.95;;;4.10;;
49223;SDS011;35050;51.316;5.994;2022-09-24T04:46:29;5.55;;;4.93;;
49223;SDS011;35050;51.316;5.994;2022-09-24T04:48:58;5.60;;;4.95;;
49223;SDS011;35050;51.316;5.994;2022-09-24T04:51:24;5.40;;;4.88;;
49223;SDS011;35050;51.316;5.994;2022-09-24T04:53:49;5.07;;;4.50;;
49223;SDS011;35050;51.316;5.994;2022-09-24T04:56:15;5.50;;;4.97;;
49223;SDS011;35050;51.316;5.994;2022-09-24T04:58:41;4.55;;;4.13;;
49223;SDS011;35050;51.316;5.994;2022-09-24T05:01:07;5.10;;;4.38;;
49223;SDS011;35050;51.316;5.994;2022-09-24T05:03:33;5.75;;;4.80;;
49223;SDS011;35050;51.316;5.994;2022-09-24T05:05:59;6.05;;;5.45;;
49223;SDS011;35050;51.316;5.994;2022-09-24T05:08:26;7.10;;;5.18;;
49223;SDS011;35050;51.316;5.994;2022-09-24T05:10:52;5.40;;;4.75;;
49223;SDS011;35050;51.316;5.994;2022-09-24T05:13:18;5.90;;;5.13;;
49223;SDS011;35050;51.316;5.994;2022-09-24T05:15:44;4.95;;;4.45;;
49223;SDS011;35050;51.316;5.994;2022-09-24T05:18:09;5.65;;;4.82;;
49223;SDS011;35050;51.316;5.994;2022-09-24T05:20:35;6.45;;;5.18;;
49223;SDS011;35050;51.316;5.994;2022-09-24T05:23:01;5.97;;;5.38;;
49223;SDS011;35050;51.316;5.994;2022-09-24T05:25:27;5.65;;;4.80;;
49223;SDS011;35050;51.316;5.994;2022-09-24T05:27:53;5.35;;;4.85;;
49223;SDS011;35050;51.316;5.994;2022-09-24T05:30:20;4.85;;;4.35;;
49223;SDS011;35050;51.316;5.994;2022-09-24T05:32:47;5.45;;;4.47;;
49223;SDS011;35050;51.316;5.994;2022-09-24T05:35:16;5.05;;;4.55;;
49223;SDS011;35050;51.316;5.994;2022-09-24T05:37:45;5.90;;;4.88;;
49223;SDS011;35050;51.316;5.994;2022-09-24T05:40:17;5.68;;;4.82;;
49223;SDS011;35050;51.316;5.994;2022-09-24T05:43:01;5.40;;;4.70;;
49223;SDS011;35050;51.316;5.994;2022-09-24T05:45:28;4.85;;;4.35;;
49223;SDS011;35050;51.316;5.994;2022-09-24T05:47:54;5.30;;;4.80;;
49223;SDS011;35050;51.316;5.994;2022-09-24T05:50:20;4.93;;;4.43;;
49223;SDS011;35050;51.316;5.994;2022-09-24T05:52:46;5.43;;;4.75;;
49223;SDS011;35050;51.316;5.994;2022-09-24T05:55:12;6.00;;;5.40;;
49223;SDS011;35050;51.316;5.994;2022-09-24T05:57:38;5.40;;;4.80;;
49223;SDS011;35050;51.316;5.994;2022-09-24T06:00:03;5.70;;;5.10;;
49223;SDS011;35050;51.316;5.994;2022-09-24T06:02:30;5.60;;;4.78;;
49223;SDS011;35050;51.316;5.994;2022-09-24T06:04:56;5.43;;;4.72;;
49223;SDS011;35050;51.316;5.994;2022-09-24T06:07:21;6.18;;;4.63;;
49223;SDS011;35050;51.316;5.994;2022-09-24T06:09:47;5.60;;;5.00;;
49223;SDS011;35050;51.316;5.994;2022-09-24T06:12:13;5.00;;;4.50;;
49223;SDS011;35050;51.316;5.994;2022-09-24T06:14:38;5.50;;;4.70;;
49223;SDS011;35050;51.316;5.994;2022-09-24T06:17:08;5.10;;;4.35;;
49223;SDS011;35050;51.316;5.994;2022-09-24T06:19:34;4.93;;;4.38;;
49223;SDS011;35050;51.316;5.994;2022-09-24T06:22:00;5.90;;;4.68;;
49223;SDS011;35050;51.316;5.994;2022-09-24T06:24:25;5.95;;;5.20;;
49223;SDS011;35050;51.316;5.994;2022-09-24T06:26:51;4.65;;;4.20;;
49223;SDS011;35050;51.316;5.994;2022-09-24T06:29:17;4.50;;;4.03;;
49223;SDS011;35050;51.316;5.994;2022-09-24T06:31:42;5.90;;;4.45;;
49223;SDS011;35050;51.316;5.994;2022-09-24T06:34:09;7.28;;;4.82;;
49223;SDS011;35050;51.316;5.994;2022-09-24T06:36:35;5.47;;;4.32;;
49223;SDS011;35050;51.316;5.994;2022-09-24T06:39:01;5.30;;;4.20;;
49223;SDS011;35050;51.316;5.994;2022-09-24T06:41:26;5.00;;;4.20;;
49223;SDS011;35050;51.316;5.994;2022-09-24T06:43:53;5.45;;;4.95;;
49223;SDS011;35050;51.316;5.994;2022-09-24T06:46:18;5.38;;;4.60;;
49223;SDS011;35050;51.316;5.994;2022-09-24T06:48:47;5.85;;;5.05;;
49223;SDS011;35050;51.316;5.994;2022-09-24T06:51:13;4.50;;;4.10;;
49223;SDS011;35050;51.316;5.994;2022-09-24T06:53:38;5.20;;;4.22;;
49223;SDS011;35050;51.316;5.994;2022-09-24T06:56:04;5.20;;;4.43;;
49223;SDS011;35050;51.316;5.994;2022-09-24T06:58:30;4.25;;;3.85;;
49223;SDS011;35050;51.316;5.994;2022-09-24T07:00:56;5.50;;;4.53;;
49223;SDS011;35050;51.316;5.994;2022-09-24T07:03:24;5.55;;;4.30;;
49223;SDS011;35050;51.316;5.994;2022-09-24T07:05:51;5.32;;;3.83;;
49223;SDS011;35050;51.316;5.994;2022-09-24T07:08:17;5.00;;;4.38;;
49223;SDS011;35050;51.316;5.994;2022-09-24T07:10:43;5.32;;;4.47;;
49223;SDS011;35050;51.316;5.994;2022-09-24T07:13:13;4.90;;;4.13;;
49223;SDS011;35050;51.316;5.994;2022-09-24T07:15:39;6.90;;;4.90;;
49223;SDS011;35050;51.316;5.994;2022-09-24T07:18:06;5.90;;;4.57;;
49223;SDS011;35050;51.316;5.994;2022-09-24T07:20:31;5.05;;;4.05;;
49223;SDS011;35050;51.316;5.994;2022-09-24T07:23:00;4.18;;;3.78;;
49223;SDS011;35050;51.316;5.994;2022-09-24T07:25:30;5.05;;;4.32;;
49223;SDS011;35050;51.316;5.994;2022-09-24T07:28:00;7.07;;;4.30;;
49223;SDS011;35050;51.316;5.994;2022-09-24T07:30:31;4.90;;;3.90;;
49223;SDS011;35050;51.316;5.994;2022-09-24T07:33:01;5.97;;;4.75;;
49223;SDS011;35050;51.316;5.994;2022-09-24T07:35:27;5.20;;;4.68;;
49223;SDS011;35050;51.316;5.994;2022-09-24T07:37:59;4.82;;;3.85;;
49223;SDS011;35050;51.316;5.994;2022-09-24T07:40:27;6.13;;;4.40;;
49223;SDS011;35050;51.316;5.994;2022-09-24T07:42:53;6.18;;;4.00;;
49223;SDS011;35050;51.316;5.994;2022-09-24T07:45:20;4.75;;;3.80;;
49223;SDS011;35050;51.316;5.994;2022-09-24T07:47:46;4.30;;;3.50;;
49223;SDS011;35050;51.316;5.994;2022-09-24T07:50:12;3.95;;;3.53;;
49223;SDS011;35050;51.316;5.994;2022-09-24T07:52:38;4.60;;;3.45;;
49223;SDS011;35050;51.316;5.994;2022-09-24T07:55:04;4.60;;;3.90;;
49223;SDS011;35050;51.316;5.994;2022-09-24T07:57:30;6.25;;;3.97;;
49223;SDS011;35050;51.316;5.994;2022-09-24T07:59:56;4.55;;;3.75;;
49223;SDS011;35050;51.316;5.994;2022-09-24T08:02:22;4.13;;;3.50;;
49223;SDS011;35050;51.316;5.994;2022-09-24T08:04:48;5.85;;;3.53;;
49223;SDS011;35050;51.316;5.994;2022-09-24T08:07:14;4.82;;;3.40;;
49223;SDS011;35050;51.316;5.994;2022-09-24T08:09:40;3.70;;;3.40;;
49223;SDS011;35050;51.316;5.994;2022-09-24T08:12:06;3.65;;;3.35;;
49223;SDS011;35050;51.316;5.994;2022-09-24T08:14:33;4.05;;;3.60;;
49223;SDS011;35050;51.316;5.994;2022-09-24T08:16:59;4.95;;;3.72;;
49223;SDS011;35050;51.316;5.994;2022-09-24T08:19:25;4.80;;;3.78;;
49223;SDS011;35050;51.316;5.994;2022-09-24T08:21:52;5.13;;;4.00;;
49223;SDS011;35050;51.316;5.994;2022-09-24T08:24:17;4.22;;;3.42;;
49223;SDS011;35050;51.316;5.994;2022-09-24T08:26:43;4.32;;;3.50;;
49223;SDS011;35050;51.316;5.994;2022-09-24T08:29:09;4.43;;;3.28;;
49223;SDS011;35050;51.316;5.994;2022-09-24T08:31:34;3.63;;;3.10;;
49223;SDS011;35050;51.316;5.994;2022-09-24T08:34:01;4.53;;;3.88;;
49223;SDS011;35050;51.316;5.994;2022-09-24T08:36:26;4.55;;;3.53;;
49223;SDS011;35050;51.316;5.994;2022-09-24T08:38:55;3.33;;;3.00;;
49223;SDS011;35050;51.316;5.994;2022-09-24T08:44:10;5.72;;;4.32;;
49223;SDS011;35050;51.316;5.994;2022-09-24T08:47:04;5.47;;;4.32;;
49223;SDS011;35050;51.316;5.994;2022-09-24T08:49:47;5.60;;;4.78;;
49223;SDS011;35050;51.316;5.994;2022-09-24T08:55:54;8.70;;;6.88;;
49223;SDS011;35050;51.316;5.994;2022-09-24T08:58:36;9.65;;;7.03;;
49223;SDS011;35050;51.316;5.994;2022-09-24T09:03:38;7.47;;;6.35;;
49223;SDS011;35050;51.316;5.994;2022-09-24T09:09:10;6.57;;;5.85;;
49223;SDS011;35050;51.316;5.994;2022-09-24T09:11:40;5.72;;;4.78;;
49223;SDS011;35050;51.316;5.994;2022-09-24T09:19:11;5.18;;;4.55;;
49223;SDS011;35050;51.316;5.994;2022-09-24T09:21:40;4.75;;;4.10;;
49223;SDS011;35050;51.316;5.994;2022-09-24T09:24:19;5.53;;;4.20;;
49223;SDS011;35050;51.316;5.994;2022-09-24T09:26:52;5.03;;;4.47;;
49223;SDS011;35050;51.316;5.994;2022-09-24T09:29:23;4.97;;;3.90;;
49223;SDS011;35050;51.316;5.994;2022-09-24T09:32:07;4.93;;;3.83;;
49223;SDS011;35050;51.316;5.994;2022-09-24T09:40:24;4.75;;;3.80;;
49223;SDS011;35050;51.316;5.994;2022-09-24T09:42:57;4.35;;;3.95;;
49223;SDS011;35050;51.316;5.994;2022-09-24T09:45:38;4.53;;;3.75;;
49223;SDS011;35050;51.316;5.994;2022-09-24T09:48:38;5.32;;;4.70;;
49223;SDS011;35050;51.316;5.994;2022-09-24T09:51:19;6.40;;;5.35;;
49223;SDS011;35050;51.316;5.994;2022-09-24T09:53:55;5.43;;;4.65;;
49223;SDS011;35050;51.316;5.994;2022-09-24T09:56:35;5.70;;;4.50;;
49223;SDS011;35050;51.316;5.994;2022-09-24T09:59:15;4.38;;;3.65;;
49223;SDS011;35050;51.316;5.994;2022-09-24T10:01:46;5.38;;;4.88;;
49223;SDS011;35050;51.316;5.994;2022-09-24T10:04:38;6.75;;;4.57;;
49223;SDS011;35050;51.316;5.994;2022-09-24T10:09:39;5.45;;;4.53;;
49223;SDS011;35050;51.316;5.994;2022-09-24T10:12:07;6.80;;;5.35;;
49223;SDS011;35050;51.316;5.994;2022-09-24T10:14:36;7.03;;;5.45;;
49223;SDS011;35050;51.316;5.994;2022-09-24T10:17:01;4.85;;;4.38;;
49223;SDS011;35050;51.316;5.994;2022-09-24T10:19:29;4.65;;;3.75;;
49223;SDS011;35050;51.316;5.994;2022-09-24T10:21:57;7.97;;;5.47;;
49223;SDS011;35050;51.316;5.994;2022-09-24T10:24:40;8.73;;;5.78;;
49223;SDS011;35050;51.316;5.994;2022-09-24T10:27:11;7.72;;;5.90;;
49223;SDS011;35050;51.316;5.994;2022-09-24T10:29:38;9.50;;;6.93;;
49223;SDS011;35050;51.316;5.994;2022-09-24T10:32:23;7.63;;;6.05;;
49223;SDS011;35050;51.316;5.994;2022-09-24T10:35:00;7.28;;;5.60;;
49223;SDS011;35050;51.316;5.994;2022-09-24T10:37:30;6.25;;;4.85;;
49223;SDS011;35050;51.316;5.994;2022-09-24T10:39:57;5.28;;;4.70;;
49223;SDS011;35050;51.316;5.994;2022-09-24T10:42:24;4.72;;;4.22;;
49223;SDS011;35050;51.316;5.994;2022-09-24T10:44:52;7.43;;;5.65;;
49223;SDS011;35050;51.316;5.994;2022-09-24T11:07:19;5.15;;;4.43;;
49223;SDS011;35050;51.316;5.994;2022-09-24T11:13:21;4.60;;;4.10;;
49223;SDS011;35050;51.316;5.994;2022-09-24T11:16:00;4.90;;;3.70;;
49223;SDS011;35050;51.316;5.994;2022-09-24T11:18:33;4.33;;;3.23;;
49223;SDS011;35050;51.316;5.994;2022-09-24T11:24:06;4.82;;;4.28;;
49223;SDS011;35050;51.316;5.994;2022-09-24T11:32:41;7.30;;;4.10;;
49223;SDS011;35050;51.316;5.994;2022-09-24T11:37:55;4.45;;;3.78;;
49223;SDS011;35050;51.316;5.994;2022-09-24T11:48:52;4.70;;;3.70;;
49223;SDS011;35050;51.316;5.994;2022-09-24T11:51:51;4.75;;;3.60;;
49223;SDS011;35050;51.316;5.994;2022-09-24T11:54:34;4.70;;;3.55;;
49223;SDS011;35050;51.316;5.994;2022-09-24T11:57:22;5.97;;;4.97;;
49223;SDS011;35050;51.316;5.994;2022-09-24T11:59:53;4.85;;;4.03;;
49223;SDS011;35050;51.316;5.994;2022-09-24T12:02:29;4.53;;;3.85;;
49223;SDS011;35050;51.316;5.994;2022-09-24T12:05:06;4.65;;;3.92;;
49223;SDS011;35050;51.316;5.994;2022-09-24T12:07:52;4.18;;;3.70;;
49223;SDS011;35050;51.316;5.994;2022-09-24T12:10:39;3.72;;;3.40;;
49223;SDS011;35050;51.316;5.994;2022-09-24T12:15:58;5.88;;;3.78;;
49223;SDS011;35050;51.316;5.994;2022-09-24T12:21:33;4.72;;;3.63;;
49223;SDS011;35050;51.316;5.994;2022-09-24T12:24:27;3.70;;;3.30;;
49223;SDS011;35050;51.316;5.994;2022-09-24T12:27:00;3.58;;;3.00;;
49223;SDS011;35050;51.316;5.994;2022-09-24T12:29:45;3.60;;;2.92;;
49223;SDS011;35050;51.316;5.994;2022-09-24T12:33:04;3.38;;;3.08;;
49223;SDS011;35050;51.316;5.994;2022-09-24T12:38:22;4.50;;;3.78;;
49223;SDS011;35050;51.316;5.994;2022-09-24T12:43:28;3.70;;;3.40;;
49223;SDS011;35050;51.316;5.994;2022-09-24T12:46:02;3.50;;;3.20;;
49223;SDS011;35050;51.316;5.994;2022-09-24T12:48:30;3.90;;;3.50;;
49223;SDS011;35050;51.316;5.994;2022-09-24T12:51:01;3.95;;;3.28;;
49223;SDS011;35050;51.316;5.994;2022-09-24T12:53:36;3.70;;;3.38;;
49223;SDS011;35050;51.316;5.994;2022-09-24T12:56:05;3.10;;;2.80;;
49223;SDS011;35050;51.316;5.994;2022-09-24T12:58:40;4.43;;;3.92;;
49223;SDS011;35050;51.316;5.994;2022-09-24T13:01:10;5.57;;;3.50;;
49223;SDS011;35050;51.316;5.994;2022-09-24T13:06:39;3.88;;;3.38;;
49223;SDS011;35050;51.316;5.994;2022-09-24T13:09:32;3.30;;;2.92;;
49223;SDS011;35050;51.316;5.994;2022-09-24T13:14:39;3.42;;;3.13;;
49223;SDS011;35050;51.316;5.994;2022-09-24T13:17:07;4.03;;;3.45;;
49223;SDS011;35050;51.316;5.994;2022-09-24T13:19:38;3.83;;;3.22;;
49223;SDS011;35050;51.316;5.994;2022-09-24T13:22:16;3.45;;;3.15;;
49223;SDS011;35050;51.316;5.994;2022-09-24T13:24:50;5.25;;;3.10;;
49223;SDS011;35050;51.316;5.994;2022-09-24T13:30:12;5.25;;;3.33;;
49223;SDS011;35050;51.316;5.994;2022-09-24T13:32:44;3.95;;;3.58;;
49223;SDS011;35050;51.316;5.994;2022-09-24T13:35:40;3.58;;;3.20;;
49223;SDS011;35050;51.316;5.994;2022-09-24T13:38:17;3.38;;;3.08;;
49223;SDS011;35050;51.316;5.994;2022-09-24T13:40:50;3.50;;;3.20;;
49223;SDS011;35050;51.316;5.994;2022-09-24T13:46:14;3.95;;;3.30;;
49223;SDS011;35050;51.316;5.994;2022-09-24T13:48:44;3.15;;;2.85;;
49223;SDS011;35050;51.316;5.994;2022-09-24T13:51:12;4.20;;;2.97;;
49223;SDS011;35050;51.316;5.994;2022-09-24T13:53:43;3.70;;;3.33;;
49223;SDS011;35050;51.316;5.994;2022-09-24T13:56:18;4.03;;;2.95;;
49223;SDS011;35050;51.316;5.994;2022-09-24T13:58:45;4.00;;;2.88;;
49223;SDS011;35050;51.316;5.994;2022-09-24T14:01:16;3.90;;;3.00;;
49223;SDS011;35050;51.316;5.994;2022-09-24T14:04:36;3.45;;;2.90;;
49223;SDS011;35050;51.316;5.994;2022-09-24T14:06:50;3.10;;;2.80;;
49223;SDS011;35050;51.316;5.994;2022-09-24T14:09:32;3.20;;;2.60;;
49223;SDS011;35050;51.316;5.994;2022-09-24T14:11:59;3.20;;;2.65;;
49223;SDS011;35050;51.316;5.994;2022-09-24T14:14:36;3.10;;;2.60;;
49223;SDS011;35050;51.316;5.994;2022-09-24T14:17:12;2.75;;;2.42;;
49223;SDS011;35050;51.316;5.994;2022-09-24T14:19:38;4.22;;;2.70;;
49223;SDS011;35050;51.316;5.994;2022-09-24T14:22:04;3.75;;;2.92;;
49223;SDS011;35050;51.316;5.994;2022-09-24T14:24:42;3.72;;;2.95;;
49223;SDS011;35050;51.316;5.994;2022-09-24T14:27:14;3.67;;;2.92;;
49223;SDS011;35050;51.316;5.994;2022-09-24T14:32:41;3.45;;;2.95;;
49223;SDS011;35050;51.316;5.994;2022-09-24T14:35:21;5.05;;;3.08;;
49223;SDS011;35050;51.316;5.994;2022-09-24T14:38:03;3.03;;;2.63;;
49223;SDS011;35050;51.316;5.994;2022-09-24T14:40:40;3.60;;;3.05;;
49223;SDS011;35050;51.316;5.994;2022-09-24T14:43:16;3.28;;;2.95;;
49223;SDS011;35050;51.316;5.994;2022-09-24T14:45:46;3.85;;;2.80;;
49223;SDS011;35050;51.316;5.994;2022-09-24T14:50:44;3.45;;;2.88;;
49223;SDS011;35050;51.316;5.994;2022-09-24T14:53:19;2.63;;;2.42;;
49223;SDS011;35050;51.316;5.994;2022-09-24T14:55:49;4.30;;;3.15;;
49223;SDS011;35050;51.316;5.994;2022-09-24T15:00:54;3.55;;;2.90;;
49223;SDS011;35050;51.316;5.994;2022-09-24T15:05:53;2.88;;;2.60;;
49223;SDS011;35050;51.316;5.994;2022-09-24T15:08:27;5.80;;;4.95;;
49223;SDS011;35050;51.316;5.994;2022-09-24T15:10:53;8.18;;;6.50;;
49223;SDS011;35050;51.316;5.994;2022-09-24T15:13:25;5.95;;;5.28;;
49223;SDS011;35050;51.316;5.994;2022-09-24T15:16:29;5.70;;;5.05;;
49223;SDS011;35050;51.316;5.994;2022-09-24T15:19:12;8.18;;;6.85;;
49223;SDS011;35050;51.316;5.994;2022-09-24T15:21:41;8.88;;;7.00;;
49223;SDS011;35050;51.316;5.994;2022-09-24T15:24:07;7.30;;;6.50;;
49223;SDS011;35050;51.316;5.994;2022-09-24T15:26:34;6.38;;;5.60;;
49223;SDS011;35050;51.316;5.994;2022-09-24T15:29:02;6.95;;;5.50;;
49223;SDS011;35050;51.316;5.994;2022-09-24T15:31:28;7.63;;;6.07;;
49223;SDS011;35050;51.316;5.994;2022-09-24T15:33:55;6.22;;;5.28;;
49223;SDS011;35050;51.316;5.994;2022-09-24T15:36:20;5.95;;;5.00;;
49223;SDS011;35050;51.316;5.994;2022-09-24T15:38:47;5.03;;;4.53;;
49223;SDS011;35050;51.316;5.994;2022-09-24T15:41:15;5.35;;;4.30;;
49223;SDS011;35050;51.316;5.994;2022-09-24T15:43:41;4.25;;;3.83;;
49223;SDS011;35050;51.316;5.994;2022-09-24T15:46:06;5.45;;;4.50;;
49223;SDS011;35050;51.316;5.994;2022-09-24T15:48:32;6.72;;;5.45;;
49223;SDS011;35050;51.316;5.994;2022-09-24T15:50:57;4.95;;;4.45;;
49223;SDS011;35050;51.316;5.994;2022-09-24T15:53:26;5.95;;;4.55;;
49223;SDS011;35050;51.316;5.994;2022-09-24T15:55:55;4.90;;;4.35;;
49223;SDS011;35050;51.316;5.994;2022-09-24T15:58:25;5.65;;;4.05;;
49223;SDS011;35050;51.316;5.994;2022-09-24T16:00:51;4.35;;;3.95;;
49223;SDS011;35050;51.316;5.994;2022-09-24T16:03:27;4.97;;;4.00;;
49223;SDS011;35050;51.316;5.994;2022-09-24T16:05:54;5.75;;;4.80;;
49223;SDS011;35050;51.316;5.994;2022-09-24T16:08:21;6.82;;;5.70;;
49223;SDS011;35050;51.316;5.994;2022-09-24T16:10:47;5.07;;;4.57;;
49223;SDS011;35050;51.316;5.994;2022-09-24T16:13:14;5.85;;;4.82;;
49223;SDS011;35050;51.316;5.994;2022-09-24T16:15:41;7.10;;;5.90;;
49223;SDS011;35050;51.316;5.994;2022-09-24T16:18:07;6.25;;;5.45;;
49223;SDS011;35050;51.316;5.994;2022-09-24T16:20:37;5.55;;;4.43;;
49223;SDS011;35050;51.316;5.994;2022-09-24T16:23:03;10.57;;;5.65;;
49223;SDS011;35050;51.316;5.994;2022-09-24T16:25:30;6.60;;;5.18;;
49223;SDS011;35050;51.316;5.994;2022-09-24T16:27:56;5.22;;;4.70;;
49223;SDS011;35050;51.316;5.994;2022-09-24T16:30:23;5.72;;;3.80;;
49223;SDS011;35050;51.316;5.994;2022-09-24T16:32:48;5.30;;;4.65;;
49223;SDS011;35050;51.316;5.994;2022-09-24T16:35:15;6.10;;;5.25;;
49223;SDS011;35050;51.316;5.994;2022-09-24T16:37:40;4.80;;;3.90;;
49223;SDS011;35050;51.316;5.994;2022-09-24T16:40:06;4.82;;;3.80;;
49223;SDS011;35050;51.316;5.994;2022-09-24T16:42:33;6.63;;;4.95;;
49223;SDS011;35050;51.316;5.994;2022-09-24T16:44:59;7.30;;;5.53;;
49223;SDS011;35050;51.316;5.994;2022-09-24T16:47:24;5.65;;;4.40;;
49223;SDS011;35050;51.316;5.994;2022-09-24T16:49:50;5.70;;;5.00;;
49223;SDS011;35050;51.316;5.994;2022-09-24T16:52:15;6.47;;;5.80;;
49223;SDS011;35050;51.316;5.994;2022-09-24T16:54:41;6.72;;;5.25;;
49223;SDS011;35050;51.316;5.994;2022-09-24T16:57:07;7.50;;;6.03;;
49223;SDS011;35050;51.316;5.994;2022-09-24T16:59:33;5.93;;;4.80;;
49223;SDS011;35050;51.316;5.994;2022-09-24T17:01:59;5.78;;;5.18;;
49223;SDS011;35050;51.316;5.994;2022-09-24T17:04:25;5.57;;;4.88;;